createdAt,value
2022-10-11T00:02:07.002Z,4.95
2022-10-11T00:04:33.695Z,6.25
2022-10-11T00:07:00.963Z,9.68
2022-10-11T00:09:27.883Z,4.30
2022-10-11T00:11:57.714Z,5.15
2022-10-11T00:14:26.076Z,5.13
2022-10-11T00:16:54.112Z,5.05
2022-10-11T00:19:21.048Z,4.65
2022-10-11T00:21:47.769Z,4.65
2022-10-11T00:24:16.140Z,5.00
2022-10-11T00:26:46.844Z,4.75
2022-10-11T00:29:14.669Z,5.53
2022-10-11T00:31:42.960Z,4.50
2022-10-11T00:34:12.038Z,4.97
2022-10-11T00:36:39.174Z,7.32
2022-10-11T00:39:06.189Z,7.78
2022-10-11T00:41:33.088Z,6.50
2022-10-11T00:44:33.019Z,4.55
2022-10-11T00:47:06.197Z,4.03
2022-10-11T00:49:42.332Z,6.85
2022-10-11T00:52:38.786Z,9.43
2022-10-11T00:55:11.770Z,9.20
2022-10-11T00:57:42.516Z,8.73
2022-10-11T01:00:12.228Z,8.02
2022-10-11T01:02:40.659Z,7.00
2022-10-11T01:05:28.079Z,6.57
2022-10-11T01:07:55.123Z,4.85
2022-10-11T01:10:22.452Z,5.40
2022-10-11T01:13:14.534Z,7.78
2022-10-11T01:15:57.963Z,7.53
2022-10-11T01:18:52.687Z,6.68
2022-10-11T01:21:39.031Z,7.75
2022-10-11T01:24:27.567Z,8.40
2022-10-11T01:26:54.160Z,7.70
2022-10-11T01:29:44.958Z,7.55
2022-10-11T01:32:16.750Z,5.53
2022-10-11T01:34:47.956Z,8.63
2022-10-11T01:37:23.884Z,9.48
2022-10-11T01:40:06.068Z,7.90
2022-10-11T01:42:34.245Z,7.90
2022-10-11T01:45:00.940Z,9.07
2022-10-11T01:47:27.717Z,8.65
2022-10-11T01:50:01.765Z,10.30
2022-10-11T01:52:32.312Z,8.70
2022-10-11T01:55:26.636Z,9.07
2022-10-11T01:58:02.968Z,11.02
2022-10-11T02:00:42.549Z,7.95
2022-10-11T02:03:18.144Z,8.82
2022-10-11T02:05:53.077Z,8.85
2022-10-11T02:08:50.205Z,8.68
2022-10-11T02:11:37.850Z,12.05
2022-10-11T02:14:13.358Z,11.80
2022-10-11T02:16:53.321Z,9.60
2022-10-11T02:19:25.029Z,14.13
2022-10-11T02:21:57.997Z,13.05
2022-10-11T02:24:30.534Z,10.85
2022-10-11T02:27:00.814Z,14.82
2022-10-11T02:29:31.854Z,12.75
2022-10-11T02:32:00.550Z,13.85
2022-10-11T02:34:40.177Z,14.20
2022-10-11T02:37:15.936Z,13.02
2022-10-11T02:39:52.568Z,10.38
2022-10-11T02:42:26.912Z,10.98
2022-10-11T02:45:01.912Z,13.57
2022-10-11T02:47:30.601Z,9.18
2022-10-11T02:49:59.804Z,16.77
2022-10-11T02:52:27.076Z,18.55
2022-10-11T02:54:53.757Z,13.82
2022-10-11T02:57:20.556Z,10.50
2022-10-11T02:59:47.188Z,15.60
2022-10-11T03:02:14.499Z,13.00
2022-10-11T03:04:41.152Z,18.10
2022-10-11T03:07:07.833Z,15.05
2022-10-11T03:09:34.495Z,15.57
2022-10-11T03:12:01.176Z,14.85
2022-10-11T03:14:27.889Z,15.00
2022-10-11T03:16:54.588Z,14.00
2022-10-11T03:19:21.218Z,13.32
2022-10-11T03:21:47.866Z,13.88
2022-10-11T03:24:14.618Z,16.40
2022-10-11T03:26:41.275Z,13.75
2022-10-11T03:29:07.942Z,14.07
2022-10-11T03:31:35.536Z,15.85
2022-10-11T03:34:02.220Z,14.02
2022-10-11T03:36:28.877Z,12.32
2022-10-11T03:38:55.517Z,15.82
2022-10-11T03:41:22.184Z,17.13
2022-10-11T03:43:48.810Z,15.25
2022-10-11T03:46:15.916Z,14.98
2022-10-11T03:48:42.529Z,17.95
2022-10-11T03:51:09.188Z,16.38
2022-10-11T03:53:35.798Z,21.05
2022-10-11T03:56:07.361Z,16.20
2022-10-11T03:58:35.136Z,19.70
2022-10-11T04:01:01.821Z,17.52
2022-10-11T04:03:28.631Z,24.40
2022-10-11T04:05:55.335Z,17.83
2022-10-11T04:08:22.140Z,18.85
2022-10-11T04:10:49.218Z,24.52
2022-10-11T04:13:16.215Z,18.20
2022-10-11T04:15:43.078Z,26.25
2022-10-11T04:18:10.133Z,24.48
2022-10-11T04:20:36.847Z,21.63
2022-10-11T04:23:03.521Z,23.48
2022-10-11T04:25:30.197Z,29.27
2022-10-11T04:27:56.968Z,26.95
2022-10-11T04:30:23.759Z,24.48
2022-10-11T04:32:50.663Z,22.08
2022-10-11T04:35:17.450Z,23.85
2022-10-11T04:37:44.104Z,25.13
2022-10-11T04:40:11.631Z,23.42
2022-10-11T04:42:38.285Z,23.08
2022-10-11T04:45:05.611Z,23.00
2022-10-11T04:47:32.292Z,22.73
2022-10-11T04:49:58.943Z,20.67
2022-10-11T04:52:26.126Z,19.23
2022-10-11T04:54:52.853Z,20.92
2022-10-11T04:57:19.574Z,24.17
2022-10-11T04:59:50.053Z,20.08
2022-10-11T05:02:17.333Z,21.92
2022-10-11T05:04:44.101Z,23.73
2022-10-11T05:07:10.768Z,20.38
2022-10-11T05:09:37.439Z,20.55
2022-10-11T05:12:04.348Z,25.02
2022-10-11T05:14:31.000Z,19.25
2022-10-11T05:16:57.842Z,19.85
2022-10-11T05:19:24.540Z,23.23
2022-10-11T05:21:51.261Z,28.45
2022-10-11T05:24:17.908Z,24.80
2022-10-11T05:26:44.561Z,27.63
2022-10-11T05:29:11.505Z,25.20
2022-10-11T05:31:38.232Z,24.40
2022-10-11T05:34:04.856Z,27.52
2022-10-11T05:36:31.547Z,27.17
2022-10-11T05:38:58.163Z,23.65
2022-10-11T05:41:24.820Z,23.20
2022-10-11T05:43:51.529Z,24.42
2022-10-11T05:46:18.235Z,25.25
2022-10-11T05:48:44.865Z,22.63
2022-10-11T05:51:12.086Z,20.05
2022-10-11T05:53:39.063Z,22.10
2022-10-11T05:56:16.805Z,20.70
2022-10-11T05:58:43.448Z,19.88
2022-10-11T06:01:18.999Z,23.00
2022-10-11T06:03:45.736Z,20.40
2022-10-11T06:06:12.444Z,20.20
2022-10-11T06:08:39.126Z,22.05
2022-10-11T06:11:13.947Z,21.90
2022-10-11T06:13:41.497Z,22.33
2022-10-11T06:16:08.649Z,20.33
2022-10-11T06:18:35.489Z,25.40
2022-10-11T06:21:02.598Z,23.10
2022-10-11T06:23:29.597Z,23.67
2022-10-11T06:26:01.037Z,26.83
2022-10-11T06:28:29.567Z,23.40
2022-10-11T06:30:57.059Z,22.02
2022-10-11T06:33:24.537Z,20.55
2022-10-11T06:35:58.165Z,18.52
2022-10-11T06:38:25.094Z,23.02
2022-10-11T06:40:51.891Z,20.15
2022-10-11T06:43:18.622Z,20.63
2022-10-11T06:45:45.661Z,21.23
2022-10-11T06:48:12.674Z,20.30
2022-10-11T06:50:58.704Z,21.55
2022-10-11T06:53:26.340Z,16.90
2022-10-11T06:55:52.985Z,15.80
2022-10-11T06:58:19.637Z,21.77
2022-10-11T07:00:46.359Z,18.55
2022-10-11T07:03:13.123Z,20.27
2022-10-11T07:05:39.834Z,15.10
2022-10-11T07:08:06.532Z,17.02
2022-10-11T07:10:35.036Z,13.35
2022-10-11T07:13:01.670Z,19.45
2022-10-11T07:15:28.333Z,18.42
2022-10-11T07:17:54.956Z,19.60
2022-10-11T07:20:21.638Z,18.52
2022-10-11T07:22:48.312Z,18.67
2022-10-11T07:25:14.985Z,16.25
2022-10-11T07:27:41.633Z,15.73
2022-10-11T07:30:08.923Z,16.10
2022-10-11T07:32:35.585Z,19.35
2022-10-11T07:35:02.275Z,18.50
2022-10-11T07:37:28.949Z,14.50
2022-10-11T07:39:55.628Z,17.95
2022-10-11T07:42:22.621Z,14.90
2022-10-11T07:44:49.322Z,17.55
2022-10-11T07:47:16.023Z,21.48
2022-10-11T07:49:42.679Z,16.65
2022-10-11T07:52:09.420Z,15.18
2022-10-11T07:54:36.206Z,15.98
2022-10-11T07:57:03.044Z,18.98
2022-10-11T07:59:30.034Z,15.45
2022-10-11T08:01:57.369Z,14.85
2022-10-11T08:04:24.298Z,13.48
2022-10-11T08:06:53.475Z,18.50
2022-10-11T08:09:20.549Z,15.48
2022-10-11T08:11:47.534Z,20.33
2022-10-11T08:14:15.087Z,16.17
2022-10-11T08:16:41.889Z,14.45
2022-10-11T08:19:08.566Z,21.05
2022-10-11T08:21:35.424Z,15.55
2022-10-11T08:24:03.264Z,12.38
2022-10-11T08:26:30.629Z,13.48
2022-10-11T08:28:59.030Z,16.25
2022-10-11T08:31:25.842Z,12.80
2022-10-11T08:33:52.823Z,20.60
2022-10-11T08:36:19.677Z,14.73
2022-10-11T08:38:46.500Z,13.20
2022-10-11T08:41:39.029Z,12.32
2022-10-11T08:44:27.540Z,13.30
2022-10-11T08:47:01.980Z,14.18
2022-10-11T08:49:33.476Z,14.73
2022-10-11T08:52:11.674Z,13.90
2022-10-11T08:54:46.985Z,11.60
2022-10-11T08:57:27.502Z,11.90
2022-10-11T09:00:00.258Z,17.80
2022-10-11T09:03:06.889Z,13.80
2022-10-11T09:05:36.317Z,15.65
2022-10-11T09:08:32.053Z,16.00
2022-10-11T09:11:16.074Z,13.10
2022-10-11T09:13:52.563Z,13.50
2022-10-11T09:16:28.634Z,10.27
2022-10-11T09:19:23.312Z,14.02
2022-10-11T09:22:18.489Z,11.38
2022-10-11T09:25:09.360Z,13.73
2022-10-11T09:28:01.922Z,13.63
2022-10-11T09:30:27.947Z,14.07
2022-10-11T09:33:12.332Z,15.27
2022-10-11T09:35:42.826Z,13.50
2022-10-11T09:38:37.859Z,19.15
2022-10-11T09:41:17.292Z,17.73
2022-10-11T09:43:51.818Z,12.98
2022-10-11T09:46:24.032Z,17.13
2022-10-11T09:48:52.215Z,15.48
2022-10-11T09:51:23.073Z,15.98
2022-10-11T09:53:54.646Z,13.35
2022-10-11T09:56:23.431Z,16.35
2022-10-11T09:59:07.621Z,16.42
2022-10-11T10:01:39.220Z,12.75
2022-10-11T10:04:14.679Z,13.98
2022-10-11T10:06:41.539Z,16.63
2022-10-11T10:09:25.313Z,12.35
2022-10-11T10:11:53.953Z,14.30
2022-10-11T10:14:30.981Z,17.85
2022-10-11T10:17:05.006Z,15.27
2022-10-11T10:19:44.684Z,14.77
2022-10-11T10:22:21.953Z,12.68
2022-10-11T10:24:51.607Z,12.25
2022-10-11T10:27:18.493Z,10.00
2022-10-11T10:30:00.991Z,11.20
2022-10-11T10:33:02.801Z,13.30
2022-10-11T10:35:49.489Z,10.18
2022-10-11T10:38:36.577Z,10.55
2022-10-11T10:41:08.643Z,9.82
2022-10-11T10:43:38.122Z,7.13
2022-10-11T10:46:42.081Z,10.00
2022-10-11T10:49:54.726Z,11.70
2022-10-11T10:52:47.545Z,10.48
2022-10-11T10:55:43.042Z,12.48
2022-10-11T10:58:45.004Z,12.68
2022-10-11T11:01:23.874Z,11.27
2022-10-11T11:03:57.902Z,9.20
2022-10-11T11:06:43.186Z,10.35
2022-10-11T11:09:25.025Z,8.18
2022-10-11T11:11:57.954Z,9.98
2022-10-11T11:14:40.018Z,10.63
2022-10-11T11:17:24.125Z,9.38
2022-10-11T11:20:24.886Z,11.63
2022-10-11T11:23:10.527Z,10.23
2022-10-11T11:25:45.060Z,11.98
2022-10-11T11:28:47.441Z,11.48
2022-10-11T11:31:14.096Z,10.85
2022-10-11T11:34:24.300Z,16.40
2022-10-11T11:37:01.834Z,15.82
2022-10-11T11:39:39.159Z,10.60
2022-10-11T11:42:22.276Z,13.23
2022-10-11T11:44:50.895Z,12.35
2022-10-11T11:47:47.191Z,11.60
2022-10-11T11:50:23.250Z,13.50
2022-10-11T11:52:57.509Z,12.68
2022-10-11T11:55:53.873Z,14.48
2022-10-11T11:58:52.650Z,12.60
2022-10-11T12:02:03.892Z,11.93
2022-10-11T12:04:38.784Z,8.13
2022-10-11T12:07:16.401Z,8.55
2022-10-11T12:09:46.968Z,8.85
2022-10-11T12:12:30.758Z,10.85
2022-10-11T12:15:09.716Z,14.45
2022-10-11T12:18:13.785Z,12.15
2022-10-11T12:20:41.959Z,15.15
2022-10-11T12:23:30.497Z,11.43
2022-10-11T12:26:19.279Z,11.10
2022-10-11T12:29:05.516Z,10.60
2022-10-11T12:31:35.735Z,10.15
2022-10-11T12:34:02.429Z,11.40
2022-10-11T12:36:32.170Z,11.00
2022-10-11T12:39:20.985Z,14.68
2022-10-11T12:41:47.734Z,12.52
2022-10-11T12:44:26.459Z,11.18
2022-10-11T12:46:59.400Z,12.27
2022-10-11T12:49:38.737Z,12.55
2022-10-11T12:52:05.675Z,13.02
2022-10-11T12:55:20.618Z,12.30
2022-10-11T12:58:12.654Z,10.70
2022-10-11T13:01:05.186Z,14.55
2022-10-11T13:03:42.370Z,8.93
2022-10-11T13:06:24.940Z,10.27
2022-10-11T13:09:10.102Z,12.35
2022-10-11T13:11:49.098Z,10.82
2022-10-11T13:14:19.988Z,7.63
2022-10-11T13:17:07.658Z,10.57
2022-10-11T13:19:37.296Z,9.48
2022-10-11T13:22:15.156Z,9.95
2022-10-11T13:24:42.592Z,11.63
2022-10-11T13:27:19.640Z,11.00
2022-10-11T13:29:47.642Z,9.30
2022-10-11T13:32:26.252Z,11.10
2022-10-11T13:37:29.941Z,10.45
2022-10-11T13:39:58.481Z,7.85
2022-10-11T13:42:31.913Z,8.77
2022-10-11T13:45:00.131Z,11.73
2022-10-11T13:47:30.072Z,7.20
2022-10-11T13:50:15.127Z,11.18
2022-10-11T13:53:08.229Z,11.15
2022-10-11T13:55:47.616Z,14.43
2022-10-11T13:58:45.029Z,9.98
2022-10-11T14:01:22.353Z,9.13
2022-10-11T14:03:56.734Z,8.30
2022-10-11T14:06:24.252Z,11.23
2022-10-11T14:08:56.646Z,12.68
2022-10-11T14:11:38.739Z,9.10
2022-10-11T14:14:30.226Z,13.05
2022-10-11T14:17:04.137Z,13.10
2022-10-11T14:19:30.786Z,13.35
2022-10-11T14:21:57.571Z,13.02
2022-10-11T14:24:24.302Z,14.32
2022-10-11T14:26:54.834Z,11.50
2022-10-11T14:29:55.549Z,11.80
2022-10-11T14:32:34.159Z,14.25
2022-10-11T14:35:01.237Z,16.15
2022-10-11T14:37:27.948Z,10.68
2022-10-11T14:39:54.743Z,13.68
2022-10-11T14:42:21.373Z,11.95
2022-10-11T14:44:48.160Z,11.20
2022-10-11T14:47:16.805Z,15.88
2022-10-11T14:49:43.583Z,14.55
2022-10-11T14:52:13.058Z,12.73
2022-10-11T14:54:40.309Z,11.43
2022-10-11T14:57:11.815Z,11.55
2022-10-11T14:59:38.787Z,11.73
2022-10-11T15:02:08.112Z,12.48
2022-10-11T15:04:35.112Z,13.20
2022-10-11T15:07:02.033Z,13.40
2022-10-11T15:09:29.057Z,12.82
2022-10-11T15:11:56.191Z,10.40
2022-10-11T15:14:25.170Z,12.60
2022-10-11T15:16:52.224Z,10.50
2022-10-11T15:19:22.329Z,13.52
2022-10-11T15:21:49.733Z,13.13
2022-10-11T15:24:19.937Z,11.63
2022-10-11T15:26:47.357Z,10.90
2022-10-11T15:29:17.407Z,14.45
2022-10-11T15:31:44.543Z,15.13
2022-10-11T15:34:11.449Z,13.20
2022-10-11T15:36:38.367Z,14.00
2022-10-11T15:39:23.153Z,12.88
2022-10-11T15:41:49.968Z,9.77
2022-10-11T15:44:16.668Z,11.30
2022-10-11T15:46:43.885Z,13.30
2022-10-11T15:49:14.186Z,11.25
2022-10-11T15:51:41.227Z,11.70
2022-10-11T15:54:07.903Z,14.60
2022-10-11T15:56:35.751Z,12.48
2022-10-11T15:59:02.462Z,11.95
2022-10-11T16:01:29.318Z,11.07
2022-10-11T16:03:56.009Z,12.00
2022-10-11T16:06:23.318Z,11.93
2022-10-11T16:08:50.170Z,12.90
2022-10-11T16:11:17.287Z,13.55
2022-10-11T16:13:45.108Z,10.75
2022-10-11T16:16:12.229Z,11.93
2022-10-11T16:18:39.087Z,12.45
2022-10-11T16:21:09.653Z,9.82
2022-10-11T16:23:37.509Z,16.58
2022-10-11T16:26:07.759Z,11.65
2022-10-11T16:28:34.896Z,12.18
2022-10-11T16:31:07.329Z,9.85
2022-10-11T16:33:34.001Z,15.15
2022-10-11T16:36:20.620Z,13.32
2022-10-11T16:38:47.242Z,8.52
2022-10-11T16:41:13.893Z,9.45
2022-10-11T16:43:41.024Z,9.10
2022-10-11T16:46:07.983Z,10.02
2022-10-11T16:48:34.932Z,14.30
2022-10-11T16:51:06.440Z,8.77
2022-10-11T16:53:34.373Z,13.40
2022-10-11T16:56:05.217Z,9.40
2022-10-11T16:58:32.013Z,12.45
2022-10-11T17:00:58.770Z,10.27
2022-10-11T17:03:25.873Z,14.73
2022-10-11T17:05:52.544Z,11.63
2022-10-11T17:08:19.264Z,10.52
2022-10-11T17:10:47.627Z,9.32
2022-10-11T17:13:14.403Z,9.02
2022-10-11T17:15:41.258Z,15.30
2022-10-11T17:18:07.889Z,21.00
2022-10-11T17:20:34.548Z,15.77
2022-10-11T17:23:01.241Z,8.32
2022-10-11T17:25:28.240Z,10.15
2022-10-11T17:27:56.206Z,10.27
2022-10-11T17:30:23.919Z,12.63
2022-10-11T17:32:53.558Z,10.20
2022-10-11T17:35:20.234Z,12.95
2022-10-11T17:37:46.932Z,11.43
2022-10-11T17:40:13.654Z,8.82
2022-10-11T17:42:40.351Z,11.38
2022-10-11T17:45:07.637Z,11.40
2022-10-11T17:47:34.404Z,12.35
2022-10-11T17:50:01.065Z,10.52
2022-10-11T17:52:27.706Z,9.70
2022-10-11T17:54:54.369Z,10.27
2022-10-11T17:57:21.005Z,10.60
2022-10-11T17:59:47.789Z,12.10
2022-10-11T18:02:14.726Z,13.63
2022-10-11T18:04:42.068Z,10.65
2022-10-11T18:07:08.844Z,10.90
2022-10-11T18:09:36.781Z,12.52
2022-10-11T18:12:03.541Z,12.63
2022-10-11T18:14:30.203Z,12.15
2022-10-11T18:16:56.907Z,14.13
2022-10-11T18:19:23.575Z,11.80
2022-10-11T18:21:50.217Z,12.38
2022-10-11T18:24:17.170Z,13.20
2022-10-11T18:26:45.409Z,12.38
2022-10-11T18:29:12.718Z,16.58
2022-10-11T18:31:40.386Z,10.55
2022-10-11T18:34:10.757Z,12.18
2022-10-11T18:36:38.021Z,14.13
2022-10-11T18:39:07.340Z,12.70
2022-10-11T18:41:35.282Z,13.73
2022-10-11T18:44:04.950Z,13.00
2022-10-11T18:46:32.406Z,15.23
2022-10-11T18:49:01.282Z,18.08
2022-10-11T18:51:30.868Z,14.60
2022-10-11T18:54:01.267Z,13.63
2022-10-11T18:56:30.382Z,14.40
2022-10-11T18:58:59.090Z,14.55
2022-10-11T19:01:30.171Z,11.65
2022-10-11T19:03:59.116Z,12.70
2022-10-11T19:06:32.626Z,13.40
2022-10-11T19:09:02.067Z,17.70
2022-10-11T19:11:28.878Z,15.48
2022-10-11T19:13:58.744Z,18.40
2022-10-11T19:16:26.771Z,20.67
2022-10-11T19:18:53.729Z,16.20
2022-10-11T19:21:20.685Z,15.20
2022-10-11T19:23:48.177Z,22.30
2022-10-11T19:26:33.577Z,15.23
2022-10-11T19:29:04.345Z,21.65
2022-10-11T19:31:32.357Z,18.95
2022-10-11T19:33:59.550Z,21.40
2022-10-11T19:36:27.112Z,19.10
2022-10-11T19:38:57.082Z,17.67
2022-10-11T19:41:24.910Z,16.77
2022-10-11T19:43:52.487Z,16.23
2022-10-11T19:46:44.564Z,19.63
2022-10-11T19:49:08.562Z,17.38
2022-10-11T19:51:35.407Z,19.08
2022-10-11T19:54:07.311Z,15.35
2022-10-11T19:56:34.829Z,20.35
2022-10-11T19:59:02.589Z,18.45
2022-10-11T20:01:31.026Z,18.92
2022-10-11T20:04:00.038Z,14.77
2022-10-11T20:06:28.316Z,18.15
2022-10-11T20:09:16.721Z,16.85
2022-10-11T20:11:42.271Z,16.45
2022-10-11T20:14:09.418Z,16.42
2022-10-11T20:16:36.377Z,18.88
2022-10-11T20:19:04.022Z,20.50
2022-10-11T20:21:31.100Z,17.63
2022-10-11T20:24:03.072Z,18.63
2022-10-11T20:26:30.816Z,18.77
2022-10-11T20:28:58.061Z,19.42
2022-10-11T20:31:26.636Z,19.08
2022-10-11T20:33:58.823Z,19.02
2022-10-11T20:36:30.144Z,18.95
2022-10-11T20:38:58.078Z,16.95
2022-10-11T20:41:33.769Z,20.42
2022-10-11T20:44:01.724Z,15.02
2022-10-11T20:46:34.071Z,25.60
2022-10-11T20:49:03.145Z,21.23
2022-10-11T20:51:32.053Z,18.10
2022-10-11T20:53:59.502Z,20.48
2022-10-11T20:56:26.818Z,20.23
2022-10-11T20:58:55.890Z,22.30
2022-10-11T21:01:28.787Z,17.80
2022-10-11T21:03:59.524Z,18.15
2022-10-11T21:06:26.699Z,22.23
2022-10-11T21:08:55.605Z,21.75
2022-10-11T21:11:25.906Z,22.80
2022-10-11T21:13:57.063Z,23.45
2022-10-11T21:16:24.489Z,22.23
2022-10-11T21:18:52.340Z,20.70
2022-10-11T21:21:19.161Z,21.73
2022-10-11T21:23:45.877Z,22.23
2022-10-11T21:26:14.770Z,22.30
2022-10-11T21:28:41.550Z,21.35
2022-10-11T21:31:13.930Z,23.38
2022-10-11T21:33:41.820Z,22.17
2022-10-11T21:36:12.012Z,21.00
2022-10-11T21:38:39.074Z,25.92
2022-10-11T21:41:13.795Z,24.15
2022-10-11T21:43:40.512Z,24.35
2022-10-11T21:46:10.312Z,24.00
2022-10-11T21:48:37.223Z,22.63
2022-10-11T21:51:04.115Z,19.50
2022-10-11T21:53:30.953Z,23.70
2022-10-11T21:56:01.364Z,24.67
2022-10-11T21:58:28.265Z,21.33
2022-10-11T22:00:55.112Z,24.92
2022-10-11T22:03:21.950Z,19.17
2022-10-11T22:05:48.756Z,22.77
2022-10-11T22:08:15.620Z,25.67
2022-10-11T22:10:55.987Z,24.02
2022-10-11T22:13:23.914Z,21.65
2022-10-11T22:15:50.750Z,26.33
2022-10-11T22:18:17.467Z,25.40
2022-10-11T22:20:44.550Z,22.33
2022-10-11T22:23:11.711Z,24.17
2022-10-11T22:25:39.546Z,23.73
2022-10-11T22:28:06.510Z,21.83
2022-10-11T22:30:33.601Z,22.38
2022-10-11T22:33:00.521Z,24.83
2022-10-11T22:35:29.728Z,24.30
2022-10-11T22:37:58.358Z,26.50
2022-10-11T22:40:25.168Z,22.88
2022-10-11T22:42:51.791Z,25.40
2022-10-11T22:45:18.434Z,19.38
2022-10-11T22:47:45.108Z,21.20
2022-10-11T22:50:11.944Z,20.70
2022-10-11T22:52:39.418Z,20.83
2022-10-11T22:55:06.637Z,26.10
2022-10-11T22:57:33.482Z,22.38
2022-10-11T23:00:00.358Z,24.52
2022-10-11T23:02:27.001Z,24.08
2022-10-11T23:04:54.245Z,21.48
2022-10-11T23:07:20.900Z,20.90
2022-10-11T23:09:47.568Z,25.50
2022-10-11T23:12:14.837Z,22.90
2022-10-11T23:14:41.532Z,21.02
2022-10-11T23:17:08.269Z,24.50
2022-10-11T23:19:36.965Z,22.13
2022-10-11T23:22:03.956Z,25.27
2022-10-11T23:24:30.612Z,23.55
2022-10-11T23:26:57.284Z,23.50
2022-10-11T23:29:24.065Z,23.85
2022-10-11T23:31:51.037Z,20.85
2022-10-11T23:34:17.724Z,23.08
2022-10-11T23:36:44.377Z,28.13
2022-10-11T23:39:12.764Z,21.88
2022-10-11T23:41:39.420Z,22.27
2022-10-11T23:44:06.167Z,24.67
2022-10-11T23:46:32.828Z,23.48
2022-10-11T23:48:59.574Z,22.90
2022-10-11T23:51:26.319Z,27.30
2022-10-11T23:53:53.174Z,24.35
2022-10-11T23:56:20.139Z,24.40
2022-10-11T23:58:47.001Z,25.90
